Flight Track Log - Related Links

Times and Time Zones

All times are in EDT time to prevent confusion due to time zone crossing. See the SKQ45 flight status page for this flight to view local times or setup timezone preferences in your user account.

Time Position Orientation Groundspeed Altitude Reporting Facility
EDT Latitude Longitude Course Direction KTS MPH feet Rate Location/Type
Thu 11:12:29 PM 37.1183 -88.8247 332° Northwest 236 272 3,000  Level Memphis Center
Thu 11:13:29 PM 37.1542 -88.8606 321° Northwest 194 223 3,900 1,000 Climbing Memphis Center
Thu 11:14:29 PM 37.1942 -88.8961 325° Northwest 179 206 5,000 950 Climbing Memphis Center
Thu 11:15:29 PM 37.2361 -88.9369 322° Northwest 184 212 5,800 822 Climbing Memphis Center
Thu 11:17:46 PM 37.3339 -89.0203 326° Northwest 192 221 7,700 731 Climbing Kansas City Center
Thu 11:18:46 PM 37.3792 -89.0628 323° Northwest 197 227 8,200 629 Climbing Kansas City Center
Thu 11:19:50 PM 37.4264 -89.1081 323° Northwest 205 236 9,000 774 Climbing Kansas City Center
Thu 11:20:50 PM 37.4836 -89.1622 323° Northwest 211 243 9,800 446 Climbing Kansas City Center
Thu 11:21:51 PM 37.5350 -89.2094 324° Northwest 218 251 9,900 49 Climbing Kansas City Center
Thu 11:22:52 PM 37.5872 -89.2578 324° Northwest 225 259 9,900  Level Kansas City Center
Thu 11:23:55 PM 37.6408 -89.3083 323° Northwest 233 268 9,900  Level Kansas City Center
Thu 11:24:56 PM 37.6928 -89.3583 323° Northwest 235 270 9,900  Level Kansas City Center
Thu 11:25:57 PM 37.7456 -89.4089 323° Northwest 237 273 9,900  Level Kansas City Center
Thu 11:26:56 PM 37.7978 -89.4578 324° Northwest 237 273 9,900  Level Kansas City Center
Thu 11:28:00 PM 37.8594 -89.5150 324° Northwest 235 270 9,900  Level Kansas City Center
Thu 11:29:00 PM 37.9117 -89.5661 322° Northwest 236 272 9,900  Level Kansas City Center
Thu 11:30:02 PM 37.9650 -89.6158 324° Northwest 238 274 9,900  Level Kansas City Center
Thu 11:31:01 PM 38.0217 -89.6697 323° Northwest 251 289 9,900  Level Kansas City Center
Thu 11:31:33 PM 38.0486 -89.6372 44° Northeast 250 288 9,900  Level FAA TRACON SMA TRACON (SMA)
Thu 11:31:49 PM 38.0650 -89.6539 321° Northwest 250 288 9,900  Level FAA TRACON SMA TRACON (SMA)
Thu 11:32:10 PM 38.0819 -89.6706 322° Northwest 249 287 9,900  Level FAA TRACON SMA TRACON (SMA)
Thu 11:32:30 PM 38.0997 -89.6864 325° Northwest 251 289 9,900  Level FAA TRACON SMA TRACON (SMA)
Thu 11:32:49 PM 38.1206 -89.7075 321° Northwest 249 287 9,900  Level FAA TRACON SMA TRACON (SMA)
Thu 11:33:09 PM 38.1372 -89.7247 321° Northwest 251 289 9,900  Level FAA TRACON SMA TRACON (SMA)
Thu 11:33:30 PM 38.1539 -89.7414 322° Northwest 251 289 9,900  Level FAA TRACON SMA TRACON (SMA)
Thu 11:33:49 PM 38.1758 -89.7617 324° Northwest 252 290 9,900  Level FAA TRACON SMA TRACON (SMA)
Thu 11:34:09 PM 38.1931 -89.7778 324° Northwest 251 289 9,900  Level FAA TRACON SMA TRACON (SMA)
Thu 11:34:30 PM 38.2108 -89.7939 325° Northwest 251 289 9,900  Level FAA TRACON SMA TRACON (SMA)
Thu 11:34:50 PM 38.2317 -89.8153 321° Northwest 250 288 9,900  Level FAA TRACON SMA TRACON (SMA)
Thu 11:35:09 PM 38.2511 -89.8289 331° Northwest 256 295 9,900 -450 Level FAA TRACON SMA TRACON (SMA)
Thu 11:35:30 PM 38.2733 -89.8392 340° North 268 308 9,600 -1,024 Descending FAA TRACON SMA TRACON (SMA)
Thu 11:35:50 PM 38.3014 -89.8514 341° North 278 320 9,200 -1,231 Descending FAA TRACON SMA TRACON (SMA)
Thu 11:36:09 PM 38.3247 -89.8608 342° North 283 326 8,800 -1,231 Descending FAA TRACON SMA TRACON (SMA)
Thu 11:36:29 PM 38.3472 -89.8708 341° North 282 325 8,400 -1,171 Descending FAA TRACON SMA TRACON (SMA)
Thu 11:36:50 PM 38.3736 -89.8842 338° Northwest 271 312 8,000 -1,050 Descending FAA TRACON SMA TRACON (SMA)
Thu 11:37:09 PM 38.3942 -89.8947 338° Northwest 263 303 7,700 -1,077 Descending FAA TRACON SMA TRACON (SMA)
Thu 11:37:29 PM 38.4139 -89.9056 337° Northwest 257 296 7,300 -1,317 Descending FAA TRACON SMA TRACON (SMA)
Thu 11:37:50 PM 38.4394 -89.9178 339° North 254 292 6,800 -1,350 Descending FAA TRACON SMA TRACON (SMA)
Thu 11:38:09 PM 38.4594 -89.9281 338° Northwest 252 290 6,400 -1,231 Descending FAA TRACON SMA TRACON (SMA)
Thu 11:38:29 PM 38.4792 -89.9383 338° Northwest 250 288 6,000 -1,227 Descending FAA TRACON SMA TRACON (SMA)
Thu 11:38:53 PM 38.5033 -89.9503 339° North 245 282 5,500 -1,227 Descending FAA TRACON SMA TRACON (SMA)
Thu 11:39:13 PM 38.5267 -89.9625 338° Northwest 237 273 5,100 -1,135 Descending FAA TRACON SMA TRACON (SMA)
Thu 11:39:30 PM 38.5406 -89.9689 340° North 233 268 4,800 -1,333 Descending FAA TRACON SMA TRACON (SMA)
Thu 11:39:49 PM 38.5631 -89.9800 339° North 227 261 4,300 -1,350 Descending FAA TRACON SMA TRACON (SMA)
Thu 11:40:10 PM 38.5800 -89.9886 338° Northwest 219 252 3,900 -1,024 Descending FAA TRACON SMA TRACON (SMA)
Thu 11:40:30 PM 38.5939 -90.0000 327° Northwest 207 238 3,600 -1,231 Descending FAA TRACON SMA TRACON (SMA)
Thu 11:40:49 PM 38.6028 -90.0228 297° West 190 219 3,100 -1,077 Descending FAA TRACON SMA TRACON (SMA)
Thu 11:41:09 PM 38.6119 -90.0397 305° West 187 215 2,900 -293 Descending FAA TRACON SMA TRACON (SMA)
Thu 11:41:30 PM 38.6200 -90.0564 302° West 182 209 2,900  Level FAA TRACON SMA TRACON (SMA)
Thu 11:41:49 PM 38.6283 -90.0717 305° West 173 199 2,900  Level FAA TRACON SMA TRACON (SMA)
Thu 11:42:09 PM 38.6375 -90.0908 301° West 166 191 2,900  Level FAA TRACON SMA TRACON (SMA)
Thu 11:42:30 PM 38.6453 -90.1058 304° West 162 186 2,900  Level FAA TRACON SMA TRACON (SMA)
Thu 11:42:49 PM 38.6525 -90.1206 302° West 160 184 2,900  Level FAA TRACON SMA TRACON (SMA)
Thu 11:43:09 PM 38.6611 -90.1386 301° West 157 181 2,900  Level FAA TRACON SMA TRACON (SMA)
Thu 11:43:30 PM 38.6689 -90.1531 305° West 157 181 2,900 -293 Level FAA TRACON SMA TRACON (SMA)
Thu 11:43:50 PM 38.6781 -90.1706 304° West 157 181 2,700 -615 Descending FAA TRACON SMA TRACON (SMA)
Thu 11:44:09 PM 38.6825 -90.1808 299° West 149 171 2,500 -750 Descending FAA TRACON SMA TRACON (SMA)
Thu 11:44:30 PM 38.6892 -90.1939 303° West 120 138 2,200 -585 Descending FAA TRACON SMA TRACON (SMA)
Thu 11:44:50 PM 38.6942 -90.2050 300° West 94 108 2,100 -462 Descending FAA TRACON SMA TRACON (SMA)
Thu 11:45:09 PM 38.6992 -90.2144 304° West 99 114 1,900 -600 Descending FAA TRACON SMA TRACON (SMA)
Thu 11:45:30 PM 38.7042 -90.2242 303° West 104 120 1,700 -585 Descending FAA TRACON SMA TRACON (SMA)
Thu 11:45:50 PM 38.7094 -90.2350 302° West 96 110 1,500 -462 Descending FAA TRACON SMA TRACON (SMA)
Thu 11:46:09 PM 38.7131 -90.2431 300° West 89 102 1,400 -462 Descending FAA TRACON SMA TRACON (SMA)
Thu 11:46:29 PM 38.7178 -90.2522 303° West 94 108 1,200 -439 Descending FAA TRACON SMA TRACON (SMA)
Thu 11:46:50 PM 38.7231 -90.2625 303° West 92 106 1,100 -450 Descending FAA TRACON SMA TRACON (SMA)
Thu 11:47:09 PM 38.7278 -90.2717 303° West 95 109 900 -615 Descending FAA TRACON SMA TRACON (SMA)
Thu 11:47:29 PM 38.7317 -90.2800 301° West 94 108 700 -600 Descending FAA TRACON SMA TRACON (SMA)
Thu 11:50:00 PM 38.7333 -90.3667 345° North  Level FlightAware Approximate

Login

Don't have an account? Register now (free) for customized features, flight alerts, and more!